createdAt,value
2016-04-08T00:00:25.427Z,1003.2
2016-04-08T00:01:25.383Z,1003.23
2016-04-08T00:02:25.354Z,1003.21
2016-04-08T00:03:25.326Z,1003.21
2016-04-08T00:04:25.298Z,1003.17
2016-04-08T00:05:25.285Z,1003.17
2016-04-08T00:06:25.240Z,1003.17
2016-04-08T00:07:25.228Z,1003.21
2016-04-08T00:08:25.199Z,1003.19
2016-04-08T00:09:25.155Z,1003.17
2016-04-08T00:10:25.126Z,1003.21
2016-04-08T00:11:25.114Z,1003.16
2016-04-08T00:12:25.085Z,1003.17
2016-04-08T00:13:25.045Z,1003.18
2016-04-08T00:14:25.016Z,1003.18
2016-04-08T00:15:25.004Z,1003.19
2016-04-08T00:16:24.959Z,1003.17
2016-04-08T00:17:24.930Z,1003.17
2016-04-08T00:18:24.902Z,1003.15
2016-04-08T00:19:24.874Z,1003.12
2016-04-08T00:20:24.845Z,1003.16
2016-04-08T00:21:24.816Z,1003.15
2016-04-08T00:22:24.788Z,1003.12
2016-04-08T00:23:24.759Z,1003.16
2016-04-08T00:24:24.731Z,1003.11
2016-04-08T00:25:24.701Z,1003.11
2016-04-08T00:26:24.673Z,1003.13
2016-04-08T00:27:24.645Z,1003.15
2016-04-08T00:28:24.616Z,1003.13
2016-04-08T00:29:24.587Z,1003.14
2016-04-08T00:30:24.558Z,1003.11
2016-04-08T00:31:24.546Z,1003.12
2016-04-08T00:32:24.502Z,1003.13
2016-04-08T00:33:24.472Z,1003.15
2016-04-08T00:34:24.445Z,1003.15
2016-04-08T00:35:24.416Z,1003.15
2016-04-08T00:36:24.388Z,1003.2
2016-04-08T00:37:24.359Z,1003.2
2016-04-08T00:38:24.330Z,1003.19
2016-04-08T00:39:24.318Z,1003.19
2016-04-08T00:40:24.274Z,1003.17
2016-04-08T00:41:24.260Z,1003.18
2016-04-08T00:42:24.216Z,1003.16
2016-04-08T00:43:24.187Z,1003.22
2016-04-08T00:44:24.174Z,1003.21
2016-04-08T00:45:24.130Z,1003.2
2016-04-08T00:46:24.117Z,1003.19
2016-04-08T00:47:24.089Z,1003.19
2016-04-08T00:48:24.045Z,1003.2
2016-04-08T00:49:24.016Z,1003.19
2016-04-08T00:50:24.004Z,1003.2
2016-04-08T00:51:23.959Z,1003.21
2016-04-08T00:52:23.931Z,1003.2
2016-04-08T00:53:23.901Z,1003.18
2016-04-08T00:54:23.889Z,1003.13
2016-04-08T00:55:23.845Z,1003.15
2016-04-08T00:56:23.816Z,1003.17
2016-04-08T00:57:23.788Z,1003.13
2016-04-08T00:58:23.759Z,1003.14
2016-04-08T00:59:23.747Z,1003.16
2016-04-08T01:00:23.717Z,1003.15
2016-04-08T01:01:23.673Z,1003.17
2016-04-08T01:02:23.645Z,1003.15
2016-04-08T01:03:23.616Z,1003.13
2016-04-08T01:04:23.603Z,1003.11
2016-04-08T01:05:23.559Z,1003.1
2016-04-08T01:06:23.546Z,1003.09
2016-04-08T01:07:23.518Z,1003.1
2016-04-08T01:08:23.489Z,1003.15
2016-04-08T01:09:23.460Z,1003.12
2016-04-08T01:10:23.433Z,1003.12
2016-04-08T01:11:23.404Z,1003.13
2016-04-08T01:12:23.375Z,1003.15
2016-04-08T01:13:23.347Z,1003.12
2016-04-08T01:14:23.318Z,1003.09
2016-04-08T01:15:23.290Z,1003.11
2016-04-08T01:16:23.260Z,1003.06
2016-04-08T01:17:23.232Z,1003.08
2016-04-08T01:18:23.204Z,1003.13
2016-04-08T01:19:23.175Z,1003.12
2016-04-08T01:20:23.146Z,1003.09
2016-04-08T01:21:23.117Z,1003.13
2016-04-08T01:22:23.089Z,1003.12
2016-04-08T01:23:23.061Z,1003.13
2016-04-08T01:24:23.032Z,1003.15
2016-04-08T01:25:23.004Z,1003.17
2016-04-08T01:26:22.975Z,1003.11
2016-04-08T01:27:22.947Z,1003.17
2016-04-08T01:28:22.917Z,1003.13
2016-04-08T01:29:22.889Z,1003.09
2016-04-08T01:30:22.861Z,1003.13
2016-04-08T01:31:22.832Z,1003.1
2016-04-08T01:32:22.803Z,1003.09
2016-04-08T01:33:22.775Z,1003.09
2016-04-08T01:34:22.747Z,1003.07
2016-04-08T01:35:22.719Z,1003.04
2016-04-08T01:36:22.690Z,1003.09
2016-04-08T01:37:22.661Z,1003.04
2016-04-08T01:38:22.648Z,1003.03
2016-04-08T01:39:22.604Z,1003.1
2016-04-08T01:40:22.591Z,1003.09
2016-04-08T01:41:22.563Z,1003.05
2016-04-08T01:42:22.533Z,1003.1
2016-04-08T01:43:22.505Z,1003.11
2016-04-08T01:44:22.476Z,1003.12
2016-04-08T01:45:22.448Z,1003.1
2016-04-08T01:46:22.419Z,1003.1
2016-04-08T01:47:22.391Z,1003.07
2016-04-08T01:48:22.363Z,1003.07
2016-04-08T01:49:22.334Z,1003.08
2016-04-08T01:50:22.305Z,1003.07
2016-04-08T01:51:22.276Z,1003.09
2016-04-08T01:52:22.248Z,1003.08
2016-04-08T01:53:22.220Z,1003.05
2016-04-08T01:54:22.190Z,1003.09
2016-04-08T01:55:22.162Z,1003.09
2016-04-08T01:56:22.133Z,1003.14
2016-04-08T01:57:22.105Z,1003.15
2016-04-08T01:58:22.076Z,1003.14
2016-04-08T01:59:22.048Z,1003.14
2016-04-08T02:00:22.020Z,1003.14
2016-04-08T02:01:21.991Z,1003.12
2016-04-08T02:02:21.962Z,1003.09
2016-04-08T02:03:21.934Z,1003.11
2016-04-08T02:04:21.906Z,1003.08
2016-04-08T02:05:21.877Z,1003.08
2016-04-08T02:06:21.848Z,1003.1
2016-04-08T02:07:21.819Z,1003.09
2016-04-08T02:08:21.789Z,1003.13
2016-04-08T02:09:21.761Z,1003.12
2016-04-08T02:10:21.732Z,1003.07
2016-04-08T02:11:21.704Z,1003.09
2016-04-08T02:12:21.675Z,1003.1
2016-04-08T02:13:21.647Z,1003.13
2016-04-08T02:14:21.617Z,1003.1
2016-04-08T02:15:21.589Z,1003.11
2016-04-08T02:16:21.561Z,1003.08
2016-04-08T02:17:21.532Z,1003.05
2016-04-08T02:18:21.503Z,1003.03
2016-04-08T02:19:21.474Z,1003.01
2016-04-08T02:20:21.446Z,1002.97
2016-04-08T02:21:21.418Z,1002.99
2016-04-08T02:22:21.388Z,1002.97
2016-04-08T02:23:21.360Z,1002.96
2016-04-08T02:24:21.332Z,1002.99
2016-04-08T02:25:21.304Z,1003.03
2016-04-08T02:26:21.275Z,1003.01
2016-04-08T02:27:21.247Z,1003.04
2016-04-08T02:28:21.202Z,1003.07
2016-04-08T02:29:21.190Z,1003.09
2016-04-08T02:31:21.132Z,1003.11
2016-04-08T02:32:21.087Z,1003.09
2016-04-08T02:33:21.059Z,1003.12
2016-04-08T02:34:21.031Z,1003.08
2016-04-08T02:35:21.003Z,1003.06
2016-04-08T02:36:20.974Z,1003.1
2016-04-08T02:37:20.961Z,1003.11
2016-04-08T02:38:20.932Z,1003.12
2016-04-08T02:39:20.889Z,1003.07
2016-04-08T02:40:20.859Z,1003.08
2016-04-08T02:41:20.831Z,1003.05
2016-04-08T02:42:20.802Z,1003.07
2016-04-08T02:43:20.774Z,1003.11
2016-04-08T02:44:20.745Z,1003.08
2016-04-08T02:45:20.732Z,1003.09
2016-04-08T02:46:20.688Z,1003.16
2016-04-08T02:47:20.660Z,1003.14
2016-04-08T02:48:20.631Z,1003.15
2016-04-08T02:49:20.602Z,1003.09
2016-04-08T02:50:20.574Z,1003.13
2016-04-08T02:51:20.546Z,1003.13
2016-04-08T02:52:20.517Z,1003.13
2016-04-08T02:53:20.488Z,1003.15
2016-04-08T02:54:20.460Z,1003.13
2016-04-08T02:55:20.432Z,1003.15
2016-04-08T02:56:20.402Z,1003.15
2016-04-08T02:57:20.374Z,1003.19
2016-04-08T02:58:20.376Z,1003.16
2016-04-08T02:59:20.317Z,1003.16
2016-04-08T03:00:20.288Z,1003.14
2016-04-08T03:01:20.260Z,1003.14
2016-04-08T03:02:20.232Z,1003.15
2016-04-08T03:03:20.203Z,1003.18
2016-04-08T03:04:20.174Z,1003.21
2016-04-08T03:05:20.145Z,1003.21
2016-04-08T03:06:20.117Z,1003.22
2016-04-08T03:07:20.089Z,1003.16
2016-04-08T03:08:20.231Z,1003.18
2016-04-08T03:09:20.062Z,1003.19
2016-04-08T03:10:20.002Z,1003.17
2016-04-08T03:11:19.974Z,1003.2
2016-04-08T03:12:19.961Z,1003.18
2016-04-08T03:13:19.916Z,1003.17
2016-04-08T03:14:19.873Z,1003.2
2016-04-08T03:15:19.860Z,1003.18
2016-04-08T03:16:19.831Z,1003.17
2016-04-08T03:17:19.787Z,1003.15
2016-04-08T03:18:19.774Z,1003.12
2016-04-08T03:19:19.730Z,1003.12
2016-04-08T03:20:19.717Z,1003.12
2016-04-08T03:21:19.672Z,1003.13
2016-04-08T03:22:19.644Z,1003.12
2016-04-08T03:23:19.616Z,1003.15
2016-04-08T03:24:19.603Z,1003.09
2016-04-08T03:25:19.575Z,1003.1
2016-04-08T03:26:19.530Z,1003.09
2016-04-08T03:27:19.502Z,1003.07
2016-04-08T03:28:19.567Z,1003.07
2016-04-08T03:29:19.444Z,1003.12
2016-04-08T03:30:19.432Z,1003.12
2016-04-08T03:31:19.403Z,1003.13
2016-04-08T03:32:19.374Z,1003.1
2016-04-08T03:33:19.345Z,1003.14
2016-04-08T03:34:19.332Z,1003.13
2016-04-08T03:35:19.322Z,1003.17
2016-04-08T03:36:19.337Z,1003.14
2016-04-08T03:37:19.353Z,1003.13
2016-04-08T03:38:19.368Z,1003.12
2016-04-08T03:39:19.384Z,1003.15
2016-04-08T03:40:19.377Z,1003.15
2016-04-08T03:41:19.348Z,1003.13
2016-04-08T03:42:19.351Z,1003.15
2016-04-08T03:43:19.354Z,1003.09
2016-04-08T03:44:19.325Z,1003.09
2016-04-08T03:45:19.305Z,1003.11
2016-04-08T03:46:19.282Z,1003.12
2016-04-08T03:47:19.258Z,1003.12
2016-04-08T03:48:19.234Z,1003.17
2016-04-08T03:49:19.211Z,1003.17
2016-04-08T03:50:19.186Z,1003.16
2016-04-08T03:51:19.160Z,1003.13
2016-04-08T03:52:19.133Z,1003.12
2016-04-08T03:53:19.106Z,1003.13
2016-04-08T03:54:19.080Z,1003.12
2016-04-08T03:55:19.053Z,1003.13
2016-04-08T03:56:19.024Z,1003.15
2016-04-08T03:57:18.996Z,1003.13
2016-04-08T03:58:18.984Z,1003.11
2016-04-08T03:59:18.941Z,1003.16
2016-04-08T04:00:18.928Z,1003.14
2016-04-08T04:01:18.884Z,1003.16
2016-04-08T04:02:18.857Z,1003.17
2016-04-08T04:03:18.829Z,1003.14
2016-04-08T04:04:18.800Z,1003.15
2016-04-08T04:05:18.772Z,1003.11
2016-04-08T04:06:18.758Z,1003.11
2016-04-08T04:07:18.730Z,1003.16
2016-04-08T04:08:18.701Z,1003.17
2016-04-08T04:09:18.673Z,1003.21
2016-04-08T04:10:18.644Z,1003.2
2016-04-08T04:11:18.615Z,1003.22
2016-04-08T04:12:18.587Z,1003.18
2016-04-08T04:13:18.559Z,1003.21
2016-04-08T04:14:18.529Z,1003.15
2016-04-08T04:15:18.502Z,1003.19
2016-04-08T04:16:18.473Z,1003.17
2016-04-08T04:17:18.445Z,1003.19
2016-04-08T04:18:18.416Z,1003.16
2016-04-08T04:19:18.387Z,1003.2
2016-04-08T04:20:18.359Z,1003.23
2016-04-08T04:21:18.330Z,1003.25
2016-04-08T04:22:18.317Z,1003.28
2016-04-08T04:23:18.289Z,1003.29
2016-04-08T04:24:18.261Z,1003.28
2016-04-08T04:25:18.231Z,1003.3
2016-04-08T04:26:18.203Z,1003.34
2016-04-08T04:27:18.174Z,1003.36
2016-04-08T04:28:18.146Z,1003.38
2016-04-08T04:29:18.117Z,1003.36
2016-04-08T04:30:18.089Z,1003.36
2016-04-08T04:31:18.076Z,1003.43
2016-04-08T04:32:18.047Z,1003.43
2016-04-08T04:33:18.003Z,1003.48
2016-04-08T04:34:17.974Z,1003.52
2016-04-08T04:35:17.946Z,1003.5
2016-04-08T04:36:17.933Z,1003.53
2016-04-08T04:37:17.888Z,1003.52
2016-04-08T04:38:17.876Z,1003.53
2016-04-08T04:39:17.847Z,1003.55
2016-04-08T04:40:17.819Z,1003.56
2016-04-08T04:41:17.791Z,1003.55
2016-04-08T04:42:17.762Z,1003.52
2016-04-08T04:43:17.733Z,1003.55
2016-04-08T04:44:17.704Z,1003.58
2016-04-08T04:45:17.676Z,1003.56
2016-04-08T04:46:17.648Z,1003.54
2016-04-08T04:47:17.618Z,1003.53
2016-04-08T04:48:17.606Z,1003.55
2016-04-08T04:49:17.561Z,1003.57
2016-04-08T04:50:17.548Z,1003.57
2016-04-08T04:51:17.520Z,1003.56
2016-04-08T04:52:17.492Z,1003.6
2016-04-08T04:53:17.463Z,1003.56
2016-04-08T04:54:17.435Z,1003.55
2016-04-08T04:55:17.406Z,1003.58
2016-04-08T04:56:17.378Z,1003.59
2016-04-08T04:57:17.350Z,1003.59
2016-04-08T04:58:17.320Z,1003.57
2016-04-08T04:59:17.292Z,1003.59
2016-04-08T05:00:17.263Z,1003.58
2016-04-08T05:01:17.235Z,1003.57
2016-04-08T05:02:17.206Z,1003.57
2016-04-08T05:03:17.177Z,1003.61
2016-04-08T05:04:17.164Z,1003.61
2016-04-08T05:05:17.120Z,1003.61
2016-04-08T05:06:17.107Z,1003.67
2016-04-08T05:07:17.079Z,1003.68
2016-04-08T05:08:17.050Z,1003.62
2016-04-08T05:09:17.022Z,1003.63
2016-04-08T05:10:16.993Z,1003.67
2016-04-08T05:11:16.965Z,1003.65
2016-04-08T05:12:16.936Z,1003.65
2016-04-08T05:13:16.907Z,1003.68
2016-04-08T05:14:16.879Z,1003.67
2016-04-08T05:15:16.851Z,1003.58
2016-04-08T05:16:16.821Z,1003.66
2016-04-08T05:17:16.810Z,1003.71
2016-04-08T05:18:16.781Z,1003.75
2016-04-08T05:19:16.752Z,1003.76
2016-04-08T05:20:16.724Z,1003.74
2016-04-08T05:21:16.695Z,1003.75
2016-04-08T05:22:16.667Z,1003.77
2016-04-08T05:23:16.637Z,1003.75
2016-04-08T05:24:16.609Z,1003.79
2016-04-08T05:25:16.581Z,1003.8
2016-04-08T05:26:16.552Z,1003.82
2016-04-08T05:27:16.523Z,1003.81
2016-04-08T05:28:16.494Z,1003.85
2016-04-08T05:29:16.466Z,1003.86
2016-04-08T05:30:16.453Z,1003.9
2016-04-08T05:31:16.425Z,1003.88
2016-04-08T05:32:16.397Z,1003.86
2016-04-08T05:33:16.367Z,1003.88
2016-04-08T05:34:16.339Z,1003.92
2016-04-08T05:35:16.311Z,1003.88
2016-04-08T05:36:16.283Z,1003.91
2016-04-08T05:37:16.253Z,1003.94
2016-04-08T05:38:16.225Z,1003.9
2016-04-08T05:39:16.196Z,1003.95
2016-04-08T05:40:16.168Z,1003.89
2016-04-08T05:41:16.155Z,1003.93
2016-04-08T05:42:16.126Z,1003.97
2016-04-08T05:43:16.098Z,1003.97
2016-04-08T05:44:16.068Z,1003.99
2016-04-08T05:45:16.040Z,1003.94
2016-04-08T05:46:16.012Z,1004
2016-04-08T05:47:15.983Z,1004.01
2016-04-08T05:48:15.955Z,1003.97
2016-04-08T05:49:15.926Z,1003.98
2016-04-08T05:50:15.898Z,1004
2016-04-08T05:51:15.885Z,1003.98
2016-04-08T05:52:15.856Z,1004.01
2016-04-08T05:53:15.828Z,1004.02
2016-04-08T05:54:15.798Z,1003.98
2016-04-08T05:55:15.770Z,1004.02
2016-04-08T05:56:15.742Z,1004.03
2016-04-08T05:57:15.713Z,1004.06
2016-04-08T05:58:15.700Z,1004.02
2016-04-08T05:59:15.656Z,1004.04
2016-04-08T06:00:15.644Z,1004.04
2016-04-08T06:01:15.600Z,1004.05
2016-04-08T06:02:15.570Z,1004.06
2016-04-08T06:03:15.558Z,1004.08
2016-04-08T06:04:15.530Z,1004.05
2016-04-08T06:05:15.500Z,1004.06
2016-04-08T06:06:15.472Z,1004.07
2016-04-08T06:07:15.444Z,1004.08
2016-04-08T06:08:15.415Z,1004.04
2016-04-08T06:09:15.386Z,1004.08
2016-04-08T06:10:15.357Z,1004.08
2016-04-08T06:11:15.344Z,1004.07
2016-04-08T06:12:15.316Z,1004.13
2016-04-08T06:13:15.288Z,1004.12
2016-04-08T06:14:15.259Z,1004.12
2016-04-08T06:15:15.231Z,1004.14
2016-04-08T06:16:15.202Z,1004.16
2016-04-08T06:17:15.174Z,1004.18
2016-04-08T06:18:15.145Z,1004.19
2016-04-08T06:19:15.116Z,1004.18
2016-04-08T06:20:15.088Z,1004.18
2016-04-08T06:21:15.075Z,1004.19
2016-04-08T06:22:15.046Z,1004.19
2016-04-08T06:23:15.018Z,1004.2
2016-04-08T06:24:14.989Z,1004.26
2016-04-08T06:25:14.961Z,1004.24
2016-04-08T06:26:14.931Z,1004.23
2016-04-08T06:27:14.903Z,1004.28
2016-04-08T06:28:14.890Z,1004.28
2016-04-08T06:29:14.846Z,1004.3
2016-04-08T06:30:14.817Z,1004.31
2016-04-08T06:31:14.805Z,1004.3
2016-04-08T06:32:14.776Z,1004.27
2016-04-08T06:33:14.748Z,1004.31
2016-04-08T06:34:14.720Z,1004.26
2016-04-08T06:35:14.691Z,1004.26
2016-04-08T06:36:14.662Z,1004.28
2016-04-08T06:37:14.634Z,1004.26
2016-04-08T06:38:14.606Z,1004.28
2016-04-08T06:39:14.592Z,1004.25
2016-04-08T06:40:14.564Z,1004.25
2016-04-08T06:41:14.536Z,1004.23
2016-04-08T06:42:14.507Z,1004.24
2016-04-08T06:43:14.494Z,1004.22
2016-04-08T06:44:14.450Z,1004.18
2016-04-08T06:45:14.421Z,1004.22
2016-04-08T06:46:14.408Z,1004.19
2016-04-08T06:47:14.380Z,1004.21
2016-04-08T06:48:14.352Z,1004.21
2016-04-08T06:49:14.322Z,1004.19
2016-04-08T06:50:14.294Z,1004.15
2016-04-08T06:51:14.265Z,1004.17
2016-04-08T06:52:14.237Z,1004.14
2016-04-08T06:53:14.223Z,1004.13
2016-04-08T06:54:14.195Z,1004.13
2016-04-08T06:55:14.167Z,1004.14
2016-04-08T06:56:14.138Z,1004.11
2016-04-08T06:57:14.109Z,1004.11
2016-04-08T06:58:14.081Z,1004.12
2016-04-08T06:59:14.068Z,1004.16
2016-04-08T07:00:14.029Z,1004.2
2016-04-08T07:01:14.000Z,1004.18
2016-04-08T07:02:13.987Z,1004.2
2016-04-08T07:03:13.958Z,1004.21
2016-04-08T07:04:13.930Z,1004.18
2016-04-08T07:05:13.901Z,1004.2
2016-04-08T07:06:13.872Z,1004.22
2016-04-08T07:07:13.844Z,1004.18
2016-04-08T07:08:13.832Z,1004.14
2016-04-08T07:09:13.803Z,1004.16
2016-04-08T07:10:13.776Z,1004.16
2016-04-08T07:11:13.747Z,1004.15
2016-04-08T07:12:13.718Z,1004.15
2016-04-08T07:13:13.689Z,1004.18
2016-04-08T07:14:13.693Z,1004.17
2016-04-08T07:15:13.648Z,1004.18
2016-04-08T07:16:13.620Z,1004.15
2016-04-08T07:17:13.591Z,1004.19
2016-04-08T07:18:13.563Z,1004.26
2016-04-08T07:19:13.550Z,1004.23
2016-04-08T07:20:13.505Z,1004.23
2016-04-08T07:21:13.492Z,1004.23
2016-04-08T07:22:13.463Z,1004.25
2016-04-08T07:23:13.436Z,1004.24
2016-04-08T07:24:13.407Z,1004.17
2016-04-08T07:25:13.378Z,1004.19
2016-04-08T07:26:13.366Z,1004.17
2016-04-08T07:27:13.337Z,1004.16
2016-04-08T07:28:13.324Z,1004.2
2016-04-08T07:29:13.310Z,1004.19
2016-04-08T07:30:13.267Z,1004.19
2016-04-08T07:31:13.238Z,1004.23
2016-04-08T07:32:13.209Z,1004.22
2016-04-08T07:33:13.181Z,1004.28
2016-04-08T07:34:13.152Z,1004.24
2016-04-08T07:35:13.124Z,1004.25
2016-04-08T07:36:13.095Z,1004.23
2016-04-08T07:37:13.082Z,1004.23
2016-04-08T07:38:13.054Z,1004.24
2016-04-08T07:39:13.026Z,1004.25
2016-04-08T07:40:12.997Z,1004.26
2016-04-08T07:41:14.218Z,1004.27
2016-04-08T07:42:14.206Z,1004.26
2016-04-08T07:43:14.209Z,1004.24
2016-04-08T07:44:14.242Z,1004.27
2016-04-08T07:45:13.541Z,1004.24
2016-04-08T07:46:14.106Z,1004.29
2016-04-08T07:47:14.250Z,1004.29
2016-04-08T07:48:14.362Z,1004.26
2016-04-08T07:49:14.053Z,1004.24
2016-04-08T07:50:14.118Z,1004.24
2016-04-08T07:51:14.089Z,1004.22
2016-04-08T07:52:14.154Z,1004.27
2016-04-08T07:53:13.736Z,1004.25
2016-04-08T07:54:14.285Z,1004.3
2016-04-08T07:55:13.944Z,1004.28
2016-04-08T07:56:14.024Z,1004.31
2016-04-08T07:57:14.121Z,1004.29
2016-04-08T07:58:13.874Z,1004.31
2016-04-08T07:59:14.001Z,1004.3
2016-04-08T08:00:13.754Z,1004.3
2016-04-08T08:01:12.475Z,1004.26
2016-04-08T08:02:13.821Z,1004.26
2016-04-08T08:03:13.777Z,1004.29
2016-04-08T08:04:13.654Z,1004.28
2016-04-08T08:05:13.674Z,1004.26
2016-04-08T08:06:12.348Z,1004.25
2016-04-08T08:07:13.570Z,1004.3
2016-04-08T08:08:13.540Z,1004.3
2016-04-08T08:09:13.512Z,1004.3
2016-04-08T08:10:12.265Z,1004.32
2016-04-08T08:11:12.220Z,1004.35
2016-04-08T08:12:12.724Z,1004.39
2016-04-08T08:13:12.179Z,1004.38
2016-04-08T08:14:12.151Z,1004.38
2016-04-08T08:15:12.122Z,1004.39
2016-04-08T08:16:12.109Z,1004.36
2016-04-08T08:17:12.081Z,1004.35
2016-04-08T08:18:12.067Z,1004.38
2016-04-08T08:19:12.039Z,1004.36
2016-04-08T08:20:12.011Z,1004.34
2016-04-08T08:21:11.983Z,1004.39
2016-04-08T08:22:11.953Z,1004.39
2016-04-08T08:23:11.941Z,1004.4
2016-04-08T08:24:11.912Z,1004.38
2016-04-08T08:25:11.883Z,1004.41
2016-04-08T08:26:11.855Z,1004.39
2016-04-08T08:27:11.842Z,1004.33
2016-04-08T08:28:11.814Z,1004.33
2016-04-08T08:29:11.785Z,1004.36
2016-04-08T08:30:11.771Z,1004.34
2016-04-08T08:31:11.744Z,1004.41
2016-04-08T08:32:11.715Z,1004.36
2016-04-08T08:33:11.702Z,1004.41
2016-04-08T08:34:11.674Z,1004.39
2016-04-08T08:35:11.645Z,1004.42
2016-04-08T08:36:11.632Z,1004.4
2016-04-08T08:37:11.604Z,1004.39
2016-04-08T08:38:11.574Z,1004.39
2016-04-08T08:39:11.562Z,1004.41
2016-04-08T08:40:11.533Z,1004.41
2016-04-08T08:41:11.504Z,1004.4
2016-04-08T08:42:11.492Z,1004.44
2016-04-08T08:43:11.478Z,1004.42
2016-04-08T08:44:11.434Z,1004.42
2016-04-08T08:45:11.422Z,1004.43
2016-04-08T08:46:11.393Z,1004.41
2016-04-08T08:47:11.380Z,1004.42
2016-04-08T08:48:11.633Z,1004.5
2016-04-08T08:49:11.323Z,1004.5
2016-04-08T08:50:11.310Z,1004.44
2016-04-08T08:51:11.281Z,1004.51
2016-04-08T08:52:11.252Z,1004.5
2016-04-08T08:53:11.240Z,1004.49
2016-04-08T08:54:11.211Z,1004.48
2016-04-08T08:55:11.199Z,1004.47
2016-04-08T08:56:11.170Z,1004.5
2016-04-08T08:57:11.157Z,1004.45
2016-04-08T08:58:11.128Z,1004.48
2016-04-08T08:59:11.100Z,1004.52
2016-04-08T09:00:11.071Z,1004.52
2016-04-08T09:01:11.058Z,1004.53
2016-04-08T09:02:11.029Z,1004.55
2016-04-08T09:03:11.017Z,1004.54
2016-04-08T09:04:10.988Z,1004.53
2016-04-08T09:05:10.960Z,1004.59
2016-04-08T09:06:10.947Z,1004.57
2016-04-08T09:07:10.918Z,1004.56
2016-04-08T09:08:10.905Z,1004.55
2016-04-08T09:09:10.876Z,1004.53
2016-04-08T09:10:10.865Z,1004.54
2016-04-08T09:11:10.835Z,1004.54
2016-04-08T09:12:10.806Z,1004.56
2016-04-08T09:13:10.793Z,1004.55
2016-04-08T09:14:10.765Z,1004.57
2016-04-08T09:15:10.737Z,1004.51
2016-04-08T09:16:10.724Z,1004.59
2016-04-08T09:17:10.695Z,1004.53
2016-04-08T09:18:10.681Z,1004.54
2016-04-08T09:19:10.653Z,1004.56
2016-04-08T09:20:10.641Z,1004.55
2016-04-08T09:21:10.784Z,1004.56
2016-04-08T09:22:10.583Z,1004.57
2016-04-08T09:23:10.570Z,1004.58
2016-04-08T09:24:10.542Z,1004.59
2016-04-08T09:25:10.529Z,1004.6
2016-04-08T09:26:10.501Z,1004.63
2016-04-08T09:27:10.488Z,1004.61
2016-04-08T09:28:10.458Z,1004.56
2016-04-08T09:29:10.462Z,1004.63
2016-04-08T09:30:10.418Z,1004.61
2016-04-08T09:31:10.405Z,1004.62
2016-04-08T09:32:10.376Z,1004.61
2016-04-08T09:33:10.347Z,1004.62
2016-04-08T09:34:10.335Z,1004.65
2016-04-08T09:35:10.307Z,1004.68
2016-04-08T09:36:10.294Z,1004.68
2016-04-08T09:37:10.265Z,1004.65
2016-04-08T09:38:10.251Z,1004.67
2016-04-08T09:39:10.223Z,1004.66
2016-04-08T09:40:10.210Z,1004.63
2016-04-08T09:41:10.181Z,1004.62
2016-04-08T09:42:10.168Z,1004.64
2016-04-08T09:43:10.140Z,1004.67
2016-04-08T09:44:10.126Z,1004.62
2016-04-08T09:45:10.098Z,1004.66
2016-04-08T09:46:10.086Z,1004.65
2016-04-08T09:47:10.057Z,1004.66
2016-04-08T09:48:10.044Z,1004.66
2016-04-08T09:49:10.015Z,1004.66
2016-04-08T09:50:10.003Z,1004.68
2016-04-08T09:51:09.974Z,1004.67
2016-04-08T09:52:09.961Z,1004.69
2016-04-08T09:53:09.933Z,1004.69
2016-04-08T09:54:09.919Z,1004.69
2016-04-08T09:55:09.892Z,1004.67
2016-04-08T09:56:09.878Z,1004.65
2016-04-08T09:57:09.865Z,1004.65
2016-04-08T09:58:09.825Z,1004.67
2016-04-08T09:59:09.812Z,1004.61
2016-04-08T10:00:09.815Z,1004.63
2016-04-08T10:01:09.771Z,1004.63
2016-04-08T10:02:09.757Z,1004.65
2016-04-08T10:03:09.729Z,1004.59
2016-04-08T10:04:09.717Z,1004.58
2016-04-08T10:05:09.687Z,1004.56
2016-04-08T10:06:09.690Z,1004.54
2016-04-08T10:07:09.661Z,1004.53
2016-04-08T10:08:09.648Z,1004.53
2016-04-08T10:09:09.620Z,1004.52
2016-04-08T10:10:09.591Z,1004.49
2016-04-08T10:11:09.579Z,1004.54
2016-04-08T10:12:09.550Z,1004.51
2016-04-08T10:13:09.536Z,1004.56
2016-04-08T10:14:09.524Z,1004.52
2016-04-08T10:15:09.496Z,1004.51
2016-04-08T10:16:09.483Z,1004.52
2016-04-08T10:17:09.454Z,1004.49
2016-04-08T10:18:09.441Z,1004.48
2016-04-08T10:19:09.428Z,1004.5
2016-04-08T10:20:09.399Z,1004.53
2016-04-08T10:21:09.388Z,1004.49
2016-04-08T10:22:09.358Z,1004.48
2016-04-08T10:23:09.345Z,1004.52
2016-04-08T10:24:09.333Z,1004.49
2016-04-08T10:25:09.304Z,1004.46
2016-04-08T10:26:09.291Z,1004.48
2016-04-08T10:27:09.278Z,1004.49
2016-04-08T10:28:09.249Z,1004.46
2016-04-08T10:29:09.237Z,1004.49
2016-04-08T10:30:09.224Z,1004.48
2016-04-08T10:31:09.195Z,1004.47
2016-04-08T10:32:09.181Z,1004.43
2016-04-08T10:33:09.153Z,1004.45
2016-04-08T10:34:09.140Z,1004.46
2016-04-08T10:35:09.112Z,1004.44
2016-04-08T10:36:09.098Z,1004.49
2016-04-08T10:37:09.086Z,1004.46
2016-04-08T10:38:09.058Z,1004.49
2016-04-08T10:39:09.045Z,1004.44
2016-04-08T10:40:09.031Z,1004.46
2016-04-08T10:41:09.003Z,1004.4
2016-04-08T10:42:08.989Z,1004.4
2016-04-08T10:43:08.962Z,1004.4
2016-04-08T10:44:08.949Z,1004.39
2016-04-08T10:45:08.920Z,1004.41
2016-04-08T10:46:08.907Z,1004.37
2016-04-08T10:47:08.894Z,1004.39
2016-04-08T10:48:08.866Z,1004.37
2016-04-08T10:49:08.853Z,1004.39
2016-04-08T10:50:08.840Z,1004.38
2016-04-08T10:51:08.810Z,1004.38
2016-04-08T10:52:08.799Z,1004.4
2016-04-08T10:53:08.769Z,1004.37
2016-04-08T10:54:08.757Z,1004.38
2016-04-08T10:55:08.728Z,1004.35
2016-04-08T10:56:08.715Z,1004.37
2016-04-08T10:57:08.687Z,1004.37
2016-04-08T10:58:08.674Z,1004.38
2016-04-08T10:59:08.646Z,1004.37
2016-04-08T11:00:08.648Z,1004.34
2016-04-08T11:01:08.616Z,1004.35
2016-04-08T11:02:08.588Z,1004.29
2016-04-08T11:03:08.575Z,1004.33
2016-04-08T11:04:08.546Z,1004.32
2016-04-08T11:05:08.534Z,1004.33
2016-04-08T11:06:08.520Z,1004.32
2016-04-08T11:07:08.492Z,1004.27
2016-04-08T11:08:08.463Z,1004.29
2016-04-08T11:09:08.450Z,1004.25
2016-04-08T11:10:08.422Z,1004.27
2016-04-08T11:11:08.409Z,1004.29
2016-04-08T11:12:08.380Z,1004.26
2016-04-08T11:13:08.367Z,1004.25
2016-04-08T11:14:08.338Z,1004.24
2016-04-08T11:15:08.326Z,1004.28
2016-04-08T11:16:08.297Z,1004.31
2016-04-08T11:17:08.285Z,1004.31
2016-04-08T11:18:08.256Z,1004.34
2016-04-08T11:19:08.243Z,1004.32
2016-04-08T11:20:08.215Z,1004.31
2016-04-08T11:21:08.202Z,1004.29
2016-04-08T11:22:08.173Z,1004.33
2016-04-08T11:23:08.159Z,1004.3
2016-04-08T11:24:08.132Z,1004.31
2016-04-08T11:25:08.118Z,1004.3
2016-04-08T11:26:08.089Z,1004.36
2016-04-08T11:27:08.076Z,1004.33
2016-04-08T11:28:08.048Z,1004.34
2016-04-08T11:29:08.020Z,1004.36
2016-04-08T11:30:08.007Z,1004.36
2016-04-08T11:31:07.978Z,1004.41
2016-04-08T11:32:07.965Z,1004.35
2016-04-08T11:33:07.936Z,1004.36
2016-04-08T11:34:07.909Z,1004.36
2016-04-08T11:35:07.895Z,1004.38
2016-04-08T11:36:07.867Z,1004.36
2016-04-08T11:37:07.854Z,1004.36
2016-04-08T11:38:07.825Z,1004.35
2016-04-08T11:39:07.812Z,1004.34
2016-04-08T11:40:07.784Z,1004.31
2016-04-08T11:41:07.771Z,1004.32
2016-04-08T11:42:07.758Z,1004.29
2016-04-08T11:43:07.730Z,1004.28
2016-04-08T11:44:09.310Z,1004.3
2016-04-08T11:45:08.671Z,1004.29
2016-04-08T11:46:08.893Z,1004.24
2016-04-08T11:47:08.897Z,1004.22
2016-04-08T11:48:07.618Z,1004.22
2016-04-08T11:49:07.589Z,1004.22
2016-04-08T11:50:07.716Z,1004.24
2016-04-08T11:51:08.313Z,1004.21
2016-04-08T11:52:08.363Z,1004.25
2016-04-08T11:53:08.741Z,1004.19
2016-04-08T11:54:07.493Z,1004.21
2016-04-08T11:55:07.479Z,1004.16
2016-04-08T11:56:07.452Z,1004.22
2016-04-08T11:57:07.423Z,1004.21
2016-04-08T11:58:07.410Z,1004.21
2016-04-08T11:59:07.382Z,1004.18
2016-04-08T12:00:07.368Z,1004.22
2016-04-08T12:01:07.356Z,1004.19
2016-04-08T12:02:07.328Z,1004.19
2016-04-08T12:03:07.314Z,1004.18
2016-04-08T12:04:07.286Z,1004.16
2016-04-08T12:05:07.272Z,1004.2
2016-04-08T12:06:07.245Z,1004.18
2016-04-08T12:07:07.231Z,1004.13
2016-04-08T12:08:07.203Z,1004.15